Huvudsida
METAR-TAF:

METAR-TAF

Flygplatser :

Forūdgāh-e Kermān

Kerman, Iran

latitud: 30-15N, longitud: 056-58E, höjd: 1748 m

Aktuellt väderrapport

Denna rapport gjordes för 1 timme och 6 minuter sedan, klockan 07:00 UTC
Vind 6 kt från väst
Temperatur 16°C
Fuktighet 29%
Tryck 1025 hPa
Sikt 10 km eller mer
Inga moln under 1 500 m eller inga cumulonimbus

METAR: OIKK 220700Z 26006KT CAVOK 16/M02 Q1024 A3026

Tid: 11:36 (08:06 UTC)

Väderprognos

Denna rapport gjordes för 2 timmar och 36 minuter sedan, klockan 05:30 UTC
Prognos gäller från 22 kl. 06 UTC till 23 kl. 12 UTC
Vind 6 kt från sydost
Sikt 10 km eller mer
Inga moln under 1 500 m eller inga cumulonimbus
Temporärt
från 22 kl. 09 UTC till 22 kl. 15 UTC
Vind 14 kt från väst/sydväst i byarna ända upp till 24 kt

TAF: OIKK 220530Z 2206/2312 14006KT CAVOK TEMPO 2209/2215 24014G24KT

Aktuella väderrapporter och prognoser från 4000 flygplatser (METAR- och TAF-rapporter).

De tillgängliga stationerna syns som gula och röda prickar på kartan.

För musen över prickarna för att se namnen på stationerna.

Klicka sedan för att få väderrapporter och prognoser.

För att ändra kartan: Klicka på de gröna knapparna med ett svart kors på för att zooma in; den gröna knappen med ett streck på för att zooma ut; eller på de gröna pilarna för angränsande kartor.


METAR-TAF: